Aviation Discussion


.AVIATION /01Z FRIDAY THROUGH TUESDAY/...
VFR THROUGH VALID TAF PD. NW FLOW AROUND 10KT OVNGT...LIGHTER AT KCHO.
VFR CONTINUES FRIDAY WITH NW WINDS 10-15KT...GUSTING TO 20KT LATE
MORNING THROUGH AFTERNOON. VFR FRIDAY NIGHT THROUGH SATURDAY NIGHT
WITH LIGHTER WINDS.

VFR CONDITIONS EXPECTED SUN-MON NIGHT. GUSTY NW FLOW SUN UP TO 25 
KTS POSSIBLE...DIMINISHING SUN NIGHT INTO MON AROUND 10 KTS OR LESS.

 

Terminal Aviation Forecasts

TAFBWI (View previous versions )
KBWI 240524Z 2406/2512 29009KT P6SM FEW060
     FM241300 32012G24KT P6SM FEW250
     FM242300 30007KT P6SM FEW250=

TAFCHO (View previous versions )
KCHO 240524Z 2406/2506 22005KT P6SM SKC
     FM241300 32009KT P6SM FEW150
     FM250000 VRB03KT P6SM FEW250=

TAFDCA (View previous versions )
KDCA 240524Z 2406/2506 32010KT P6SM FEW060
      TEMPO 2406/2409 31011G20KT P6SM SKC
     FM241300 31012G23KT P6SM SCT250
     FM250000 31008KT P6SM FEW250=

TAFIAD (View previous versions )
KIAD 240524Z 2406/2512 32010KT P6SM SKC
      TEMPO 2406/2409 31012G22KT P6SM SKC
     FM241300 31012G21KT P6SM FEW150
     FM250000 31006KT P6SM FEW250=

TAFMRB (View previous versions )
KMRB 240524Z 2406/2506 31008KT P6SM FEW200
     FM241300 31012G20KT P6SM SCT250
     FM242300 30006KT P6SM SCT200=

TAFMTN (View previous versions )
KMTN 240524Z 2406/2506 NIL=


Meteorological Impact Statement

ZDC MIS 02 VALID 231950-240200
...FOR ATC PLANNING PURPOSES ONLY...
VFR AND BREEZY ACROSS THE ZDC AIRSPACE. LGT-MOD TURB BLW 120 AND 
ABOVE FL200 ACROSS NJ/ N VA. LGT-MOD ICE 070-FL200 ACROSS NJ. GUSTY 
NW WIND DECREASING TO 5-10 KT AFT 00Z.

Surface Map


TRACON Thunderstorm Forecast


Vertical Wind Profiles